Time;durP1;ratioP1;P1;durP2;ratioP2;P2;SDS_P1;SDS_P2;PMS_P1;PMS_P2;Temp;Humidity;BMP_temperature;BMP_pressure;BME280_temperature;BME280_humidity;BME280_pressure;Samples;Min_cycle;Max_cycle;Signal;HPM_P1;HPM_P2
2023/06/20 00:00:49;;;;;;;17.65;12.45;;;18.50;99.90;;;;;;5119322;28;20453;-59
2023/06/20 00:03:15;;;;;;;17.77;12.93;;;18.50;99.90;;;;;;5118600;28;20082;-59
2023/06/20 00:05:41;;;;;;;18.95;13.48;;;18.50;99.90;;;;;;5117658;28;20051;-59
2023/06/20 00:08:07;;;;;;;19.88;14.23;;;18.50;99.90;;;;;;5118929;28;20092;-60
2023/06/20 00:10:32;;;;;;;17.70;13.68;;;18.50;99.90;;;;;;5119536;28;20367;-60
2023/06/20 00:12:59;;;;;;;17.60;13.43;;;18.40;99.90;;;;;;5118742;28;20177;-59
2023/06/20 00:15:25;;;;;;;23.10;15.10;;;18.40;99.90;;;;;;5117845;28;20539;-60
2023/06/20 00:18:01;;;;;;;20.38;13.77;;;18.40;99.90;;;;;;5117498;28;20048;-59
2023/06/20 00:20:27;;;;;;;18.98;13.80;;;18.40;99.90;;;;;;5118859;28;20075;-59
2023/06/20 00:22:54;;;;;;;20.33;13.25;;;18.30;99.90;;;;;;5118846;28;20028;-59
2023/06/20 00:25:20;;;;;;;20.80;13.85;;;18.40;99.90;;;;;;5118384;28;20572;-60
2023/06/20 00:27:46;;;;;;;22.75;14.35;;;18.40;99.90;;;;;;5119261;28;20076;-60
2023/06/20 00:30:12;;;;;;;18.60;13.95;;;18.30;99.90;;;;;;5118532;28;20071;-60
2023/06/20 00:32:38;;;;;;;22.15;14.07;;;18.30;99.90;;;;;;5117501;28;20043;-60
2023/06/20 00:35:04;;;;;;;21.98;14.27;;;18.30;99.90;;;;;;5117638;28;20043;-61
2023/06/20 00:37:29;;;;;;;19.13;13.40;;;18.30;99.90;;;;;;5118813;28;20134;-60
2023/06/20 00:39:55;;;;;;;18.80;14.50;;;18.30;99.90;;;;;;5118520;28;20091;-59
2023/06/20 00:42:25;;;;;;;21.50;15.10;;;18.30;99.90;;;;;;5118570;28;20043;-60
2023/06/20 00:44:51;;;;;;;24.55;15.35;;;18.30;99.90;;;;;;5118557;28;20568;-60
2023/06/20 00:47:18;;;;;;;20.13;14.10;;;18.30;99.90;;;;;;5118298;28;20076;-60
2023/06/20 00:49:49;;;;;;;19.50;13.50;;;18.30;99.90;;;;;;5118491;28;20047;-60
2023/06/20 00:52:20;;;;;;;18.17;13.63;;;18.20;99.90;;;;;;5118342;28;20074;-60
2023/06/20 00:54:47;;;;;;;17.33;13.30;;;18.20;99.90;;;;;;5118175;28;20111;-59
2023/06/20 00:57:22;;;;;;;19.02;14.48;;;18.10;99.90;;;;;;5118188;28;20054;-60
2023/06/20 00:59:49;;;;;;;24.92;15.88;;;18.10;99.90;;;;;;5118120;28;20095;-59
2023/06/20 01:02:16;;;;;;;19.08;13.98;;;18.10;99.90;;;;;;5118455;28;20043;-60
2023/06/20 01:04:44;;;;;;;19.98;14.65;;;18.10;99.90;;;;;;5118322;28;20082;-59
2023/06/20 01:07:24;;;;;;;20.52;14.95;;;18.10;99.90;;;;;;5116775;28;20490;-58
2023/06/20 01:10:05;;;;;;;20.50;14.63;;;18.10;99.90;;;;;;5118033;28;20043;-59
2023/06/20 01:12:31;;;;;;;;;;;18.10;99.90;;;;;;5118509;28;20039;-59
2023/06/20 01:15:36;;;;;;;19.73;13.35;;;18.10;99.90;;;;;;5118657;28;19945;-59
2023/06/20 01:18:08;;;;;;;21.08;14.68;;;18.10;99.90;;;;;;5115952;28;20051;-59
2023/06/20 01:20:44;;;;;;;22.33;14.70;;;18.20;99.90;;;;;;5116724;28;20079;-59
2023/06/20 01:23:20;;;;;;;19.50;14.45;;;18.10;99.90;;;;;;5118131;28;20059;-59
2023/06/20 01:25:59;;;;;;;22.85;14.60;;;18.20;99.90;;;;;;5117760;28;20052;-60
2023/06/20 01:28:39;;;;;;;22.17;14.80;;;18.20;99.90;;;;;;5118175;28;20126;-58
2023/06/20 01:31:12;;;;;;;22.35;15.45;;;18.20;99.90;;;;;;5117872;28;20054;-60
2023/06/20 01:34:08;;;;;;;18.08;14.43;;;18.20;99.90;;;;;;5117795;28;20100;-59
2023/06/20 01:36:38;;;;;;;26.00;15.30;;;18.20;99.90;;;;;;5117494;28;20112;-59
2023/06/20 01:39:17;;;;;;;22.67;14.65;;;18.20;99.90;;;;;;5117799;28;20051;-59
2023/06/20 01:41:44;;;;;;;22.88;14.95;;;18.20;99.90;;;;;;5118013;28;20043;-59
2023/06/20 01:44:14;;;;;;;20.95;14.90;;;18.10;99.90;;;;;;5117777;28;20052;-59
2023/06/20 01:46:39;;;;;;;21.33;15.20;;;18.10;99.90;;;;;;5116509;28;20052;-59
2023/06/20 01:49:07;;;;;;;19.90;15.45;;;18.10;99.90;;;;;;5117752;28;20092;-59
2023/06/20 01:51:33;;;;;;;21.60;14.50;;;18.20;99.90;;;;;;5117498;28;20099;-59
2023/06/20 01:54:03;;;;;;;19.67;13.25;;;18.10;99.90;;;;;;5117785;28;20044;-59
2023/06/20 01:56:31;;;;;;;20.23;13.43;;;18.10;99.90;;;;;;5117704;28;20040;-60
2023/06/20 01:59:00;;;;;;;17.80;12.68;;;18.10;99.90;;;;;;5117681;28;20052;-59
2023/06/20 02:01:27;;;;;;;18.20;12.80;;;18.10;99.90;;;;;;5117558;28;20565;-59
2023/06/20 02:03:56;;;;;;;17.00;11.40;;;18.10;99.90;;;;;;5117283;28;20044;-59
2023/06/20 02:06:23;;;;;;;18.90;12.45;;;18.10;99.90;;;;;;5118440;28;20067;-60
2023/06/20 02:08:50;;;;;;;16.45;11.88;;;18.10;99.90;;;;;;5120434;28;20078;-59
2023/06/20 02:11:17;;;;;;;16.00;11.18;;;18.10;99.90;;;;;;5121559;28;20039;-59
2023/06/20 02:13:43;;;;;;;15.95;11.15;;;18.10;99.90;;;;;;5121095;28;20036;-59
2023/06/20 02:16:11;;;;;;;16.23;11.55;;;18.20;99.90;;;;;;5121358;28;20123;-59
2023/06/20 02:18:37;;;;;;;17.35;11.50;;;18.10;99.90;;;;;;5120932;28;20039;-59
2023/06/20 02:21:10;;;;;;;16.65;10.57;;;18.10;99.90;;;;;;5121066;28;20054;-59
2023/06/20 02:23:38;;;;;;;14.25;9.82;;;18.10;99.90;;;;;;5121269;28;20059;-59
2023/06/20 02:26:09;;;;;;;15.30;10.40;;;18.10;99.90;;;;;;5120828;28;20487;-59
2023/06/20 02:28:49;;;;;;;16.33;10.35;;;18.10;99.90;;;;;;5121077;28;20104;-59
2023/06/20 02:31:21;;;;;;;14.73;10.00;;;18.20;99.90;;;;;;5120651;28;20047;-59
2023/06/20 02:33:51;;;;;;;16.33;10.15;;;18.10;99.90;;;;;;5120476;28;20068;-60
2023/06/20 02:36:20;;;;;;;14.73;9.85;;;18.10;99.90;;;;;;5121450;27;20032;-59
2023/06/20 02:38:46;;;;;;;15.75;9.57;;;18.10;99.90;;;;;;5120661;28;20035;-59
2023/06/20 02:41:12;;;;;;;15.77;10.10;;;18.10;99.90;;;;;;5120987;28;20039;-59
2023/06/20 02:43:38;;;;;;;13.70;8.95;;;18.10;99.90;;;;;;5119261;28;20059;-60
2023/06/20 02:46:13;;;;;;;13.43;9.30;;;18.10;99.90;;;;;;5120776;28;20035;-59
2023/06/20 02:49:18;;;;;;;14.00;9.50;;;18.10;99.90;;;;;;5120279;28;20052;-60
2023/06/20 02:52:05;;;;;;;14.70;8.68;;;18.10;99.90;;;;;;5120099;28;20080;-59
2023/06/20 02:55:04;;;;;;;12.73;8.13;;;18.10;99.90;;;;;;5120313;28;20047;-60
2023/06/20 02:57:31;;;;;;;12.93;8.15;;;18.00;99.90;;;;;;5120844;28;20045;-59
2023/06/20 03:00:09;;;;;;;13.43;7.50;;;18.10;99.90;;;;;;5118817;28;20044;-59
2023/06/20 03:02:44;;;;;;;12.70;7.70;;;18.10;99.90;;;;;;5120081;28;20044;-59
2023/06/20 03:05:13;;;;;;;11.18;7.22;;;18.10;99.90;;;;;;5120099;28;20050;-59
2023/06/20 03:07:41;;;;;;;11.68;7.03;;;18.10;99.90;;;;;;5120301;28;20062;-59
2023/06/20 03:10:08;;;;;;;10.48;6.60;;;18.10;99.90;;;;;;5120247;28;20070;-60
2023/06/20 03:12:34;;;;;;;10.25;6.78;;;18.10;99.90;;;;;;5119971;28;20058;-59
2023/06/20 03:15:00;;;;;;;12.80;6.20;;;18.10;99.90;;;;;;5120196;28;20039;-59
2023/06/20 03:17:26;;;;;;;10.35;6.82;;;18.10;99.90;;;;;;5120040;28;20085;-59
2023/06/20 03:19:51;;;;;;;10.63;6.32;;;18.10;99.90;;;;;;5120039;28;20126;-59
2023/06/20 03:22:17;;;;;;;11.60;6.45;;;18.10;99.90;;;;;;5119894;28;20051;-58
2023/06/20 03:24:45;;;;;;;10.30;6.10;;;18.10;99.90;;;;;;5119647;28;20052;-59
2023/06/20 03:27:11;;;;;;;11.77;6.85;;;18.10;99.90;;;;;;5119957;28;20109;-59
2023/06/20 03:29:36;;;;;;;12.38;7.10;;;18.20;99.90;;;;;;5118208;28;20039;-59
2023/06/20 03:32:02;;;;;;;11.13;6.97;;;18.20;99.90;;;;;;5120024;28;20547;-59
2023/06/20 03:34:29;;;;;;;13.02;7.03;;;18.20;99.90;;;;;;5119649;28;20044;-59
2023/06/20 03:36:55;;;;;;;11.05;7.15;;;18.20;99.90;;;;;;5120013;28;20044;-59
2023/06/20 03:39:21;;;;;;;12.93;7.40;;;18.20;99.90;;;;;;5120008;28;20565;-59
2023/06/20 03:41:46;;;;;;;12.15;7.30;;;18.20;99.90;;;;;;5119533;28;20072;-60
2023/06/20 03:44:12;;;;;;;11.82;7.10;;;18.20;99.90;;;;;;5119163;28;20100;-59
2023/06/20 03:46:38;;;;;;;11.30;7.38;;;18.20;99.90;;;;;;5119449;28;20050;-59
2023/06/20 03:49:03;;;;;;;11.55;7.80;;;18.20;99.90;;;;;;5119924;28;20042;-59
2023/06/20 03:51:29;;;;;;;12.98;7.30;;;18.20;99.90;;;;;;5119224;28;20070;-59
2023/06/20 03:53:55;;;;;;;12.60;7.80;;;18.30;99.90;;;;;;5119330;28;20044;-59
2023/06/20 03:56:20;;;;;;;14.40;8.18;;;18.30;99.90;;;;;;5119437;28;20039;-59
2023/06/20 03:58:46;;;;;;;11.80;7.90;;;18.30;99.90;;;;;;5118958;28;20643;-59
2023/06/20 04:01:11;;;;;;;12.35;7.93;;;18.30;99.90;;;;;;5119129;28;20047;-59
2023/06/20 04:03:37;;;;;;;14.90;8.60;;;18.30;99.90;;;;;;5118518;28;20039;-59
2023/06/20 04:06:03;;;;;;;13.23;7.85;;;18.30;99.90;;;;;;5119401;28;20047;-59
2023/06/20 04:08:29;;;;;;;12.63;7.93;;;18.30;99.90;;;;;;5118959;28;20044;-59
2023/06/20 04:10:55;;;;;;;12.80;8.75;;;18.30;99.90;;;;;;5119128;28;20050;-59
2023/06/20 04:13:21;;;;;;;16.27;9.30;;;18.30;99.90;;;;;;5118703;28;20074;-59
2023/06/20 04:15:47;;;;;;;16.08;9.15;;;18.30;99.90;;;;;;5118892;28;20043;-59
2023/06/20 04:18:12;;;;;;;14.00;9.15;;;18.30;99.90;;;;;;5118783;28;20058;-59
2023/06/20 04:20:38;;;;;;;14.68;8.88;;;18.30;99.90;;;;;;5118869;28;20044;-59
2023/06/20 04:23:04;;;;;;;14.27;9.63;;;18.30;99.90;;;;;;5118844;28;20044;-60
2023/06/20 04:25:29;;;;;;;15.20;9.07;;;18.30;99.90;;;;;;5118242;28;20082;-59
2023/06/20 04:27:56;;;;;;;13.55;9.48;;;18.30;99.90;;;;;;5118816;28;20059;-59
2023/06/20 04:30:24;;;;;;;12.50;8.63;;;18.30;99.90;;;;;;5118366;28;20095;-59
2023/06/20 04:32:53;;;;;;;13.70;9.20;;;18.40;99.90;;;;;;5118412;28;20039;-60
2023/06/20 04:35:19;;;;;;;14.30;9.90;;;18.40;99.90;;;;;;5118450;28;20050;-58
2023/06/20 04:37:48;;;;;;;13.60;8.98;;;18.40;99.90;;;;;;5118629;28;20043;-59
2023/06/20 04:40:14;;;;;;;12.57;9.43;;;18.40;99.90;;;;;;5118739;28;20129;-60
2023/06/20 04:42:40;;;;;;;16.40;10.27;;;18.50;99.90;;;;;;5118231;28;20048;-60
2023/06/20 04:45:08;;;;;;;14.55;9.38;;;18.50;99.90;;;;;;5118864;28;20079;-59
2023/06/20 04:47:33;;;;;;;14.45;10.32;;;18.50;99.90;;;;;;5118314;28;20128;-58
2023/06/20 04:50:03;;;;;;;14.13;9.73;;;18.50;99.90;;;;;;5118240;28;20047;-60
2023/06/20 04:52:30;;;;;;;15.63;9.60;;;18.60;99.90;;;;;;5118216;28;20058;-58
2023/06/20 04:55:01;;;;;;;16.10;11.20;;;18.60;99.90;;;;;;5116894;28;20051;-59
2023/06/20 04:57:31;;;;;;;14.73;9.93;;;18.60;99.90;;;;;;5118618;28;20095;-59
2023/06/20 04:59:57;;;;;;;14.55;9.57;;;18.60;99.90;;;;;;5118108;28;20079;-59
2023/06/20 05:02:23;;;;;;;14.10;9.45;;;18.70;99.90;;;;;;5118336;28;20051;-60
2023/06/20 05:04:49;;;;;;;14.70;9.55;;;18.70;99.90;;;;;;5118314;28;20057;-61
2023/06/20 05:07:15;;;;;;;15.45;9.48;;;18.70;99.90;;;;;;5118191;28;20059;-60
2023/06/20 05:09:41;;;;;;;17.00;10.63;;;18.70;99.90;;;;;;5118046;28;20521;-60
2023/06/20 05:12:06;;;;;;;15.43;9.25;;;18.60;99.90;;;;;;5116017;28;20161;-60
2023/06/20 05:14:32;;;;;;;15.18;9.68;;;18.70;99.90;;;;;;5115102;28;20047;-60
2023/06/20 05:16:58;;;;;;;15.05;9.65;;;18.70;99.90;;;;;;5114672;28;20077;-60
2023/06/20 05:19:23;;;;;;;14.25;9.98;;;18.80;99.90;;;;;;5115164;28;20056;-60
2023/06/20 05:21:49;;;;;;;16.98;10.20;;;18.80;99.90;;;;;;5114905;28;20048;-60
2023/06/20 05:24:15;;;;;;;15.75;9.65;;;18.80;99.90;;;;;;5114243;28;20065;-61
2023/06/20 05:26:41;;;;;;;13.23;9.93;;;18.80;99.90;;;;;;5114649;28;20055;-60
2023/06/20 05:29:06;;;;;;;12.50;9.48;;;18.90;99.90;;;;;;5114819;28;20715;-61
2023/06/20 05:31:32;;;;;;;12.75;9.35;;;18.90;99.90;;;;;;5114756;28;20082;-60
2023/06/20 05:33:58;;;;;;;13.85;9.35;;;18.90;99.90;;;;;;5114099;28;20051;-61
2023/06/20 05:36:24;;;;;;;14.45;9.27;;;18.90;99.90;;;;;;5114679;28;20047;-60
2023/06/20 05:38:50;;;;;;;14.77;10.60;;;18.90;99.90;;;;;;5114540;28;20047;-61
2023/06/20 05:41:16;;;;;;;14.05;9.80;;;19.00;99.90;;;;;;5114540;28;20039;-60
2023/06/20 05:43:41;;;;;;;15.93;10.05;;;19.00;99.90;;;;;;5115996;28;20904;-61
2023/06/20 05:46:07;;;;;;;15.52;10.27;;;19.10;99.90;;;;;;5118749;28;20051;-61
2023/06/20 05:48:34;;;;;;;13.25;9.52;;;19.00;99.90;;;;;;5117963;28;20082;-60
2023/06/20 05:51:00;;;;;;;14.40;10.68;;;19.10;99.90;;;;;;5118092;28;20058;-61
2023/06/20 05:53:29;;;;;;;13.85;10.25;;;19.00;99.90;;;;;;5116987;28;20126;-61
2023/06/20 05:55:55;;;;;;;14.60;10.43;;;19.10;99.90;;;;;;5118199;28;20040;-60
2023/06/20 05:58:20;;;;;;;14.43;9.80;;;19.10;99.90;;;;;;5118300;28;20032;-60
2023/06/20 06:00:47;;;;;;;15.98;10.93;;;19.10;99.90;;;;;;5117787;28;20040;-61
2023/06/20 06:03:13;;;;;;;14.73;10.30;;;19.10;99.90;;;;;;5117596;28;20055;-60
2023/06/20 06:05:41;;;;;;;15.98;10.40;;;19.10;99.90;;;;;;5117782;28;20047;-61
2023/06/20 06:08:07;;;;;;;15.25;10.20;;;19.20;99.90;;;;;;5117650;28;20139;-61
2023/06/20 06:10:33;;;;;;;13.73;9.75;;;19.10;99.90;;;;;;5116871;28;20047;-60
2023/06/20 06:12:58;;;;;;;14.07;9.20;;;19.20;99.90;;;;;;5117177;28;20130;-61
2023/06/20 06:15:24;;;;;;;13.65;10.65;;;19.20;99.90;;;;;;5116467;28;20430;-61
2023/06/20 06:17:50;;;;;;;14.48;9.25;;;19.30;99.90;;;;;;5117629;28;20054;-61
2023/06/20 06:20:18;;;;;;;13.45;9.85;;;19.30;99.90;;;;;;5117679;27;20684;-61
2023/06/20 06:22:43;;;;;;;14.35;9.95;;;19.20;99.90;;;;;;5117431;28;20096;-61
2023/06/20 06:25:09;;;;;;;17.00;10.88;;;19.30;99.90;;;;;;5117127;28;20151;-61
2023/06/20 06:27:35;;;;;;;15.23;9.73;;;19.40;99.90;;;;;;5118087;28;20051;-60
2023/06/20 06:30:03;;;;;;;14.88;9.90;;;19.50;99.90;;;;;;5117446;27;20055;-61
2023/06/20 06:32:33;;;;;;;17.08;10.23;;;19.60;99.90;;;;;;5117423;28;20055;-60
2023/06/20 06:34:59;;;;;;;14.63;10.85;;;19.70;99.90;;;;;;5117311;28;20072;-61
2023/06/20 06:37:29;;;;;;;15.55;10.88;;;19.80;99.90;;;;;;5117244;28;20103;-61
2023/06/20 06:39:56;;;;;;;15.52;10.77;;;19.90;99.90;;;;;;5117658;28;20101;-61
2023/06/20 06:42:23;;;;;;;15.90;10.60;;;20.00;99.90;;;;;;5117285;28;20078;-61
2023/06/20 06:44:49;;;;;;;13.85;10.13;;;20.10;99.90;;;;;;5117876;28;20031;-61
2023/06/20 06:47:15;;;;;;;14.45;10.20;;;20.20;99.90;;;;;;5117062;28;20044;-61
2023/06/20 06:49:40;;;;;;;14.45;9.80;;;20.40;99.90;;;;;;5116801;28;20067;-60
2023/06/20 06:52:06;;;;;;;12.65;9.90;;;20.60;99.90;;;;;;5117333;28;20075;-61
2023/06/20 06:54:32;;;;;;;13.27;9.88;;;20.70;99.90;;;;;;5115339;28;20574;-57
2023/06/20 06:56:58;;;;;;;14.40;9.73;;;20.80;99.90;;;;;;5116885;28;20095;-61
2023/06/20 06:59:23;;;;;;;15.82;11.32;;;20.90;99.90;;;;;;5116831;28;20101;-61
2023/06/20 07:01:49;;;;;;;17.20;10.27;;;20.90;99.90;;;;;;5116997;28;20058;-61
2023/06/20 07:04:15;;;;;;;16.67;9.90;;;20.90;99.90;;;;;;5116629;28;20493;-60
2023/06/20 07:06:41;;;;;;;15.35;10.43;;;21.00;99.90;;;;;;5116872;28;20059;-60
2023/06/20 07:09:07;;;;;;;15.45;10.57;;;21.10;99.90;;;;;;5116003;28;20047;-61
2023/06/20 07:11:33;;;;;;;15.65;11.27;;;21.20;99.90;;;;;;5116162;28;20133;-61
2023/06/20 07:13:58;;;;;;;17.17;11.30;;;21.10;99.90;;;;;;5115636;28;20039;-60
2023/06/20 07:16:25;;;;;;;15.00;10.20;;;21.10;99.90;;;;;;5115928;28;20031;-60
2023/06/20 07:18:51;;;;;;;14.40;10.32;;;21.10;99.90;;;;;;5116230;28;20510;-61
2023/06/20 07:21:17;;;;;;;16.67;10.43;;;21.20;99.90;;;;;;5115851;28;20047;-60
2023/06/20 07:23:43;;;;;;;16.50;10.65;;;21.20;99.90;;;;;;5114454;28;20048;-61
2023/06/20 07:26:09;;;;;;;14.55;11.10;;;21.20;99.90;;;;;;5116600;28;20051;-61
2023/06/20 07:28:36;;;;;;;15.43;10.93;;;21.30;99.90;;;;;;5116267;28;20047;-61
2023/06/20 07:31:02;;;;;;;16.50;11.40;;;21.30;99.90;;;;;;5116371;28;20058;-60
2023/06/20 07:33:28;;;;;;;14.65;10.85;;;21.30;99.90;;;;;;5115141;28;20050;-60
2023/06/20 07:35:53;;;;;;;15.32;10.65;;;21.20;99.90;;;;;;5115186;28;20040;-60
2023/06/20 07:38:19;;;;;;;14.43;10.18;;;21.30;99.90;;;;;;5115847;28;20043;-59
2023/06/20 07:40:45;;;;;;;14.15;10.35;;;21.30;99.90;;;;;;5116601;28;20099;-60
2023/06/20 07:43:10;;;;;;;15.75;10.18;;;21.40;99.90;;;;;;5116264;28;20070;-60
2023/06/20 07:45:36;;;;;;;14.13;10.70;;;21.40;99.90;;;;;;5115847;28;20119;-60
2023/06/20 07:48:06;;;;;;;15.13;11.45;;;21.50;99.90;;;;;;5115566;28;20082;-60
2023/06/20 07:50:32;;;;;;;14.88;10.70;;;21.60;99.90;;;;;;5116011;28;20039;-60
2023/06/20 07:52:58;;;;;;;14.52;10.50;;;21.60;99.90;;;;;;5115920;28;20081;-60
2023/06/20 07:55:23;;;;;;;14.68;10.02;;;21.50;99.90;;;;;;5115732;28;20032;-60
2023/06/20 07:57:49;;;;;;;15.10;10.65;;;21.60;99.90;;;;;;5116156;28;20134;-61
2023/06/20 08:00:15;;;;;;;14.82;11.40;;;21.70;99.90;;;;;;5115296;28;20051;-61
2023/06/20 08:02:41;;;;;;;13.57;10.02;;;21.60;99.90;;;;;;5115412;28;20052;-60
2023/06/20 08:05:08;;;;;;;14.80;10.32;;;21.70;99.90;;;;;;5114749;28;20046;-60
2023/06/20 08:07:35;;;;;;;15.95;10.43;;;21.80;99.90;;;;;;5115101;28;20039;-60
2023/06/20 08:10:02;;;;;;;16.73;10.88;;;21.90;99.90;;;;;;5113826;28;20122;-60
2023/06/20 08:12:29;;;;;;;12.65;9.93;;;21.90;99.90;;;;;;5114299;28;20040;-59
2023/06/20 08:14:54;;;;;;;15.90;10.98;;;22.10;99.90;;;;;;5115127;28;20032;-60
2023/06/20 08:17:20;;;;;;;14.43;10.82;;;22.10;99.90;;;;;;5114802;28;20088;-60
2023/06/20 08:19:45;;;;;;;14.35;10.75;;;22.20;99.90;;;;;;5114978;28;20069;-60
2023/06/20 08:22:11;;;;;;;14.85;10.85;;;22.30;99.90;;;;;;5115006;28;20051;-60
2023/06/20 08:24:37;;;;;;;14.95;10.10;;;22.40;99.90;;;;;;5114551;28;20083;-60
2023/06/20 08:27:04;;;;;;;13.50;10.60;;;22.60;99.90;;;;;;5114877;28;20055;-59
2023/06/20 08:29:30;;;;;;;14.27;10.77;;;22.70;99.90;;;;;;5114904;28;20472;-60
2023/06/20 08:31:56;;;;;;;18.10;10.52;;;22.70;99.90;;;;;;5115373;28;20100;-60
2023/06/20 08:34:21;;;;;;;14.02;10.55;;;22.90;99.90;;;;;;5114712;28;20043;-60
2023/06/20 08:36:47;;;;;;;16.38;10.35;;;23.10;99.90;;;;;;5114333;28;20070;-59
2023/06/20 08:39:13;;;;;;;13.27;10.15;;;23.30;99.90;;;;;;5113094;28;20062;-59
2023/06/20 08:41:38;;;;;;;12.93;9.52;;;23.40;99.90;;;;;;5114614;28;20074;-59
2023/06/20 08:44:04;;;;;;;11.93;9.20;;;23.50;99.90;;;;;;5115867;28;20059;-59
2023/06/20 08:46:31;;;;;;;12.32;9.40;;;23.70;99.90;;;;;;5117691;28;20035;-59
2023/06/20 08:48:57;;;;;;;11.68;9.05;;;23.80;99.90;;;;;;5118004;28;20051;-59
2023/06/20 08:51:27;;;;;;;12.82;9.60;;;23.80;99.90;;;;;;5117452;28;20114;-59
2023/06/20 08:53:54;;;;;;;11.00;8.50;;;23.80;99.90;;;;;;5117507;28;20056;-59
2023/06/20 08:56:20;;;;;;;12.52;9.35;;;23.70;99.90;;;;;;5117615;28;20042;-59
2023/06/20 08:58:47;;;;;;;12.35;9.50;;;23.50;99.90;;;;;;5117150;28;20055;-59
2023/06/20 09:01:13;;;;;;;15.48;10.23;;;23.40;99.90;;;;;;5117618;28;20043;-59
2023/06/20 09:03:39;;;;;;;13.85;9.05;;;23.30;99.90;;;;;;5117072;28;20047;-59
2023/06/20 09:06:06;;;;;;;12.25;9.23;;;23.20;99.90;;;;;;5118272;28;20044;-59
2023/06/20 09:08:39;;;;;;;12.80;9.45;;;23.20;99.90;;;;;;5117438;28;20040;-59
2023/06/20 09:11:09;;;;;;;12.07;9.10;;;23.10;99.90;;;;;;5117812;28;20101;-59
2023/06/20 09:13:35;;;;;;;11.55;9.05;;;23.10;99.90;;;;;;5117557;28;20082;-60
2023/06/20 09:16:09;;;;;;;13.13;9.48;;;23.20;99.90;;;;;;5116227;28;20055;-60
2023/06/20 09:18:37;;;;;;;14.10;9.20;;;23.10;99.90;;;;;;5121771;28;20532;-59
2023/06/20 09:21:03;;;;;;;12.60;10.05;;;23.20;99.90;;;;;;5120217;28;20048;-59
2023/06/20 09:23:30;;;;;;;11.70;9.43;;;23.20;99.90;;;;;;5121660;28;20035;-59
2023/06/20 09:25:57;;;;;;;14.55;9.85;;;23.20;99.90;;;;;;5120100;28;20044;-59
2023/06/20 09:28:23;;;;;;;12.35;9.70;;;23.20;99.90;;;;;;5121179;28;20050;-59
2023/06/20 09:30:49;;;;;;;12.98;9.57;;;23.20;99.90;;;;;;5121666;28;20051;-59
2023/06/20 09:33:15;;;;;;;12.32;9.50;;;23.40;99.90;;;;;;5121692;28;20089;-58
2023/06/20 09:35:41;;;;;;;12.57;9.93;;;23.40;99.90;;;;;;5121893;28;20089;-59
2023/06/20 09:38:08;;;;;;;11.77;9.27;;;23.30;99.90;;;;;;5121799;28;20031;-60
2023/06/20 09:40:45;;;;;;;14.15;9.30;;;23.40;99.90;;;;;;5122248;28;20090;-59
2023/06/20 09:43:10;;;;;;;11.25;8.52;;;23.50;99.90;;;;;;5121776;28;20140;-59
2023/06/20 09:45:36;;;;;;;12.73;8.65;;;23.60;99.90;;;;;;5121096;28;20427;-59
2023/06/20 09:48:03;;;;;;;13.38;9.13;;;23.60;99.90;;;;;;5120957;28;20047;-59
2023/06/20 09:50:31;;;;;;;14.13;9.23;;;23.80;99.90;;;;;;5121316;28;20077;-60
2023/06/20 09:53:12;;;;;;;18.58;10.68;;;23.70;99.90;;;;;;5121120;28;20044;-58
2023/06/20 09:55:39;;;;;;;11.85;9.15;;;23.80;99.90;;;;;;5120886;28;20084;-59
2023/06/20 09:58:05;;;;;;;12.73;9.10;;;24.00;99.90;;;;;;5121331;28;20031;-59
2023/06/20 10:00:33;;;;;;;12.32;9.25;;;24.10;99.90;;;;;;5120847;28;20065;-59
2023/06/20 10:03:00;;;;;;;13.20;9.75;;;24.30;99.90;;;;;;5120394;27;20039;-59
2023/06/20 10:05:27;;;;;;;12.05;8.43;;;24.70;99.90;;;;;;5120648;28;20099;-60
2023/06/20 10:07:57;;;;;;;13.25;9.23;;;25.00;99.90;;;;;;5120932;28;20044;-59
2023/06/20 10:10:23;;;;;;;11.93;7.63;;;25.10;99.90;;;;;;5121555;28;20048;-59
2023/06/20 10:12:49;;;;;;;12.00;8.60;;;25.40;99.90;;;;;;5120978;28;20084;-59
2023/06/20 10:15:16;;;;;;;11.18;7.50;;;25.40;99.90;;;;;;5121219;28;20061;-59
2023/06/20 10:17:48;;;;;;;9.40;7.60;;;25.40;99.90;;;;;;5120605;28;20039;-59
2023/06/20 10:20:31;;;;;;;11.63;7.80;;;25.60;99.90;;;;;;5120578;28;20059;-59
2023/06/20 10:22:58;;;;;;;11.32;7.32;;;25.60;99.90;;;;;;5120540;28;20426;-59
2023/06/20 10:25:26;;;;;;;12.50;7.43;;;25.60;99.90;;;;;;5101865;28;20047;-59
2023/06/20 10:27:57;;;;;;;10.00;6.85;;;25.80;99.90;;;;;;5119928;28;20070;-56
2023/06/20 10:30:50;;;;;;;9.20;6.60;;;25.90;99.90;;;;;;5120598;28;20080;-59
2023/06/20 10:33:26;;;;;;;9.18;6.43;;;26.10;99.90;;;;;;5120292;28;20079;-59
2023/06/20 10:36:08;;;;;;;8.95;6.68;;;26.20;99.90;;;;;;5120878;28;20103;-59
2023/06/20 10:38:50;;;;;;;10.75;6.70;;;26.20;99.90;;;;;;5119991;28;20032;-59
2023/06/20 10:41:26;;;;;;;9.32;6.70;;;26.30;99.90;;;;;;5120362;28;20101;-59
2023/06/20 10:43:59;;;;;;;10.13;6.43;;;26.30;99.90;;;;;;5120438;28;20488;-59
2023/06/20 10:46:37;;;;;;;7.90;5.90;;;26.50;99.90;;;;;;5119888;28;20055;-60
2023/06/20 10:49:04;;;;;;;8.45;6.40;;;26.50;99.90;;;;;;5120300;28;20103;-59
2023/06/20 10:51:29;;;;;;;10.20;7.15;;;26.50;99.90;;;;;;5120249;28;20047;-56
2023/06/20 10:54:12;;;;;;;11.07;6.57;;;26.60;99.90;;;;;;5120351;27;20208;-60
2023/06/20 10:56:37;;;;;;;10.77;6.85;;;26.70;99.90;;;;;;5120226;28;20058;-59
2023/06/20 10:59:18;;;;;;;12.90;9.50;;;26.50;99.90;;;;;;5120478;28;20071;-60
2023/06/20 11:01:44;;;;;;;12.68;8.35;;;26.40;99.90;;;;;;5120607;28;20043;-58
2023/06/20 11:04:11;;;;;;;10.80;8.05;;;26.60;99.90;;;;;;5119481;28;20484;-59
2023/06/20 11:06:38;;;;;;;11.23;8.50;;;26.60;99.90;;;;;;5119990;28;20047;-59
2023/06/20 11:09:04;;;;;;;9.85;7.53;;;26.70;99.90;;;;;;5119736;28;20055;-58
2023/06/20 11:11:39;;;;;;;12.30;7.78;;;26.90;99.90;;;;;;5119838;28;20118;-59
2023/06/20 11:14:17;;;;;;;12.90;7.65;;;26.90;99.90;;;;;;5118036;28;20059;-58
2023/06/20 11:16:44;;;;;;;8.90;6.05;;;26.90;99.90;;;;;;5119417;28;20065;-59
2023/06/20 11:19:10;;;;;;;8.30;5.32;;;27.10;99.90;;;;;;5119990;28;20035;-59
2023/06/20 11:21:35;;;;;;;8.77;6.43;;;27.20;99.90;;;;;;5119473;28;20127;-58
2023/06/20 11:24:03;;;;;;;10.40;6.60;;;27.20;99.60;;;;;;5118023;28;20044;-58
2023/06/20 11:26:30;;;;;;;10.32;6.43;;;27.20;99.60;;;;;;5119083;28;20049;-58
2023/06/20 11:29:02;;;;;;;9.43;5.85;;;27.10;99.80;;;;;;5119264;28;20080;-58
2023/06/20 11:31:29;;;;;;;9.60;6.00;;;27.20;99.80;;;;;;5119425;28;20043;-58
2023/06/20 11:34:05;;;;;;;9.25;6.07;;;27.20;99.90;;;;;;5119150;27;20031;-58
2023/06/20 11:36:36;;;;;;;9.35;5.85;;;27.10;99.20;;;;;;5119934;28;20085;-58
2023/06/20 11:39:07;;;;;;;8.50;6.05;;;27.20;99.60;;;;;;5110593;28;20032;-58
2023/06/20 11:41:34;;;;;;;8.00;5.85;;;27.40;99.50;;;;;;5113214;28;20491;-59
2023/06/20 11:44:01;;;;;;;9.48;6.30;;;27.50;99.40;;;;;;5112534;28;20096;-59
2023/06/20 11:46:27;;;;;;;8.30;6.05;;;27.60;99.80;;;;;;5113948;28;20044;-59
2023/06/20 11:48:56;;;;;;;9.43;5.72;;;27.60;99.70;;;;;;5113290;28;20047;-57
2023/06/20 11:51:24;;;;;;;7.97;5.85;;;27.70;99.60;;;;;;5112604;28;20044;-58
2023/06/20 11:54:01;;;;;;;9.02;6.70;;;27.60;99.70;;;;;;5098591;28;20056;-58
2023/06/20 11:56:27;;;;;;;10.02;6.00;;;27.70;99.10;;;;;;5098489;28;20050;-60
2023/06/20 11:58:53;;;;;;;9.82;7.45;;;27.70;99.90;;;;;;5106348;28;20510;-60
2023/06/20 12:01:25;;;;;;;8.07;6.43;;;27.70;99.30;;;;;;5105070;28;20051;-60
2023/06/20 12:04:05;;;;;;;7.97;5.68;;;27.90;99.40;;;;;;5110049;28;20043;-59
2023/06/20 12:06:31;;;;;;;8.57;6.68;;;28.10;99.40;;;;;;5111050;28;20031;-60
2023/06/20 12:09:00;;;;;;;10.10;6.35;;;28.00;99.20;;;;;;5116359;28;20043;-60
2023/06/20 12:11:27;;;;;;;8.52;6.60;;;28.30;99.50;;;;;;5113954;28;20118;-60
2023/06/20 12:13:53;;;;;;;8.85;6.70;;;28.30;99.10;;;;;;5117259;28;20418;-60
2023/06/20 12:16:23;;;;;;;8.57;6.03;;;28.40;99.30;;;;;;5118172;28;20048;-60
2023/06/20 12:18:51;;;;;;;7.90;6.10;;;28.50;98.70;;;;;;5118692;28;20054;-60
2023/06/20 12:21:17;;;;;;;8.93;6.53;;;28.50;98.90;;;;;;5118264;28;20095;-60
2023/06/20 12:23:43;;;;;;;8.35;5.78;;;28.30;98.60;;;;;;5116974;28;20039;-59
2023/06/20 12:26:09;;;;;;;8.63;6.40;;;28.30;98.70;;;;;;5117786;28;20074;-59
2023/06/20 12:28:39;;;;;;;10.85;6.80;;;28.10;98.70;;;;;;5117776;28;20051;-60
2023/06/20 12:31:04;;;;;;;8.27;6.43;;;27.90;99.10;;;;;;5117707;28;20047;-60
2023/06/20 12:33:30;;;;;;;8.75;6.68;;;28.10;99.00;;;;;;5107273;28;20059;-60
2023/06/20 12:35:58;;;;;;;9.65;6.55;;;28.20;98.50;;;;;;5116620;28;20042;-60
2023/06/20 12:38:29;;;;;;;8.40;5.90;;;28.40;98.50;;;;;;5097886;28;20062;-60